sensor_id;sensor_type;location;lat;lon;timestamp;P1;durP1;ratioP1;P2;durP2;ratioP2
18206;SDS011;9229;52.354;20.886;2023-11-19T00:03:13;48.00;;;20.58;;
18206;SDS011;9229;52.354;20.886;2023-11-19T00:08:17;41.28;;;19.23;;
18206;SDS011;9229;52.354;20.886;2023-11-19T00:13:19;53.40;;;23.25;;
18206;SDS011;9229;52.354;20.886;2023-11-19T00:18:21;50.83;;;21.02;;
18206;SDS011;9229;52.354;20.886;2023-11-19T00:23:24;54.95;;;20.98;;
18206;SDS011;9229;52.354;20.886;2023-11-19T00:28:26;53.55;;;21.42;;
18206;SDS011;9229;52.354;20.886;2023-11-19T00:33:29;48.42;;;19.63;;
18206;SDS011;9229;52.354;20.886;2023-11-19T00:38:32;46.08;;;20.13;;
18206;SDS011;9229;52.354;20.886;2023-11-19T00:43:34;38.45;;;17.50;;
18206;SDS011;9229;52.354;20.886;2023-11-19T00:48:36;44.58;;;18.52;;
18206;SDS011;9229;52.354;20.886;2023-11-19T00:53:39;44.00;;;19.55;;
18206;SDS011;9229;52.354;20.886;2023-11-19T00:58:42;40.47;;;17.85;;
18206;SDS011;9229;52.354;20.886;2023-11-19T01:03:43;42.47;;;18.67;;
18206;SDS011;9229;52.354;20.886;2023-11-19T01:08:47;48.30;;;19.88;;
18206;SDS011;9229;52.354;20.886;2023-11-19T01:13:49;42.42;;;19.38;;
18206;SDS011;9229;52.354;20.886;2023-11-19T01:18:51;54.92;;;19.60;;
18206;SDS011;9229;52.354;20.886;2023-11-19T01:23:55;50.28;;;19.73;;
18206;SDS011;9229;52.354;20.886;2023-11-19T01:28:57;57.85;;;20.83;;
18206;SDS011;9229;52.354;20.886;2023-11-19T01:33:59;45.95;;;18.65;;
18206;SDS011;9229;52.354;20.886;2023-11-19T01:39:02;45.42;;;17.83;;
18206;SDS011;9229;52.354;20.886;2023-11-19T01:44:05;46.40;;;18.48;;
18206;SDS011;9229;52.354;20.886;2023-11-19T01:49:07;42.05;;;18.58;;
18206;SDS011;9229;52.354;20.886;2023-11-19T01:54:13;41.28;;;18.17;;
18206;SDS011;9229;52.354;20.886;2023-11-19T01:59:15;45.15;;;19.98;;
18206;SDS011;9229;52.354;20.886;2023-11-19T02:04:18;51.08;;;18.70;;
18206;SDS011;9229;52.354;20.886;2023-11-19T02:09:22;49.90;;;17.90;;
18206;SDS011;9229;52.354;20.886;2023-11-19T02:14:25;50.70;;;18.42;;
18206;SDS011;9229;52.354;20.886;2023-11-19T02:19:28;47.85;;;19.15;;
18206;SDS011;9229;52.354;20.886;2023-11-19T02:24:32;56.25;;;21.15;;
18206;SDS011;9229;52.354;20.886;2023-11-19T02:29:36;49.90;;;20.35;;
18206;SDS011;9229;52.354;20.886;2023-11-19T02:34:38;53.00;;;20.08;;
18206;SDS011;9229;52.354;20.886;2023-11-19T02:39:40;51.65;;;20.15;;
18206;SDS011;9229;52.354;20.886;2023-11-19T02:44:45;51.63;;;20.92;;
18206;SDS011;9229;52.354;20.886;2023-11-19T02:49:48;56.15;;;21.95;;
18206;SDS011;9229;52.354;20.886;2023-11-19T02:54:53;49.10;;;19.67;;
18206;SDS011;9229;52.354;20.886;2023-11-19T02:59:57;51.90;;;21.20;;
18206;SDS011;9229;52.354;20.886;2023-11-19T03:05:00;49.47;;;20.08;;
18206;SDS011;9229;52.354;20.886;2023-11-19T03:10:03;53.45;;;20.05;;
18206;SDS011;9229;52.354;20.886;2023-11-19T03:15:09;56.20;;;20.80;;
18206;SDS011;9229;52.354;20.886;2023-11-19T03:20:11;52.60;;;21.85;;
18206;SDS011;9229;52.354;20.886;2023-11-19T03:25:17;62.35;;;23.13;;
18206;SDS011;9229;52.354;20.886;2023-11-19T03:30:20;59.80;;;21.83;;
18206;SDS011;9229;52.354;20.886;2023-11-19T03:35:22;60.83;;;21.40;;
18206;SDS011;9229;52.354;20.886;2023-11-19T03:40:24;58.67;;;21.73;;
18206;SDS011;9229;52.354;20.886;2023-11-19T03:45:28;58.53;;;22.88;;
18206;SDS011;9229;52.354;20.886;2023-11-19T03:50:30;64.20;;;22.60;;
18206;SDS011;9229;52.354;20.886;2023-11-19T03:55:32;67.03;;;22.80;;
18206;SDS011;9229;52.354;20.886;2023-11-19T04:00:36;56.70;;;22.30;;
18206;SDS011;9229;52.354;20.886;2023-11-19T04:05:38;64.10;;;24.10;;
18206;SDS011;9229;52.354;20.886;2023-11-19T04:10:40;66.57;;;25.58;;
18206;SDS011;9229;52.354;20.886;2023-11-19T04:15:44;72.40;;;24.02;;
18206;SDS011;9229;52.354;20.886;2023-11-19T04:20:47;73.63;;;24.33;;
18206;SDS011;9229;52.354;20.886;2023-11-19T04:25:48;67.30;;;24.48;;
18206;SDS011;9229;52.354;20.886;2023-11-19T04:30:52;58.70;;;21.45;;
18206;SDS011;9229;52.354;20.886;2023-11-19T04:35:55;69.53;;;25.10;;
18206;SDS011;9229;52.354;20.886;2023-11-19T04:40:57;77.70;;;25.50;;
18206;SDS011;9229;52.354;20.886;2023-11-19T04:46:04;71.78;;;24.73;;
18206;SDS011;9229;52.354;20.886;2023-11-19T04:51:07;67.85;;;23.58;;
18206;SDS011;9229;52.354;20.886;2023-11-19T04:56:10;70.68;;;25.77;;
18206;SDS011;9229;52.354;20.886;2023-11-19T05:01:15;75.07;;;25.27;;
18206;SDS011;9229;52.354;20.886;2023-11-19T05:06:17;59.08;;;22.33;;
18206;SDS011;9229;52.354;20.886;2023-11-19T05:11:19;62.38;;;24.48;;
18206;SDS011;9229;52.354;20.886;2023-11-19T05:16:23;75.68;;;25.42;;
18206;SDS011;9229;52.354;20.886;2023-11-19T05:21:25;60.72;;;21.67;;
18206;SDS011;9229;52.354;20.886;2023-11-19T05:26:27;68.70;;;24.15;;
18206;SDS011;9229;52.354;20.886;2023-11-19T05:31:30;69.10;;;23.17;;
18206;SDS011;9229;52.354;20.886;2023-11-19T05:36:32;68.05;;;23.08;;
18206;SDS011;9229;52.354;20.886;2023-11-19T05:41:34;58.90;;;21.85;;
18206;SDS011;9229;52.354;20.886;2023-11-19T05:46:38;74.32;;;24.50;;
18206;SDS011;9229;52.354;20.886;2023-11-19T05:51:42;63.58;;;22.77;;
18206;SDS011;9229;52.354;20.886;2023-11-19T05:56:47;64.43;;;22.45;;
18206;SDS011;9229;52.354;20.886;2023-11-19T06:01:50;74.75;;;24.73;;
18206;SDS011;9229;52.354;20.886;2023-11-19T06:06:54;72.22;;;23.70;;
18206;SDS011;9229;52.354;20.886;2023-11-19T06:11:56;73.35;;;24.70;;
18206;SDS011;9229;52.354;20.886;2023-11-19T06:16:59;56.03;;;21.20;;
18206;SDS011;9229;52.354;20.886;2023-11-19T06:22:01;54.53;;;20.63;;
18206;SDS011;9229;52.354;20.886;2023-11-19T06:27:04;53.78;;;20.02;;
18206;SDS011;9229;52.354;20.886;2023-11-19T06:32:08;43.80;;;17.23;;
18206;SDS011;9229;52.354;20.886;2023-11-19T06:37:10;44.03;;;16.92;;
18206;SDS011;9229;52.354;20.886;2023-11-19T06:42:11;44.67;;;17.90;;
18206;SDS011;9229;52.354;20.886;2023-11-19T06:47:15;45.45;;;16.95;;
18206;SDS011;9229;52.354;20.886;2023-11-19T06:52:16;40.45;;;17.05;;
18206;SDS011;9229;52.354;20.886;2023-11-19T06:57:19;39.20;;;15.77;;
18206;SDS011;9229;52.354;20.886;2023-11-19T07:02:24;40.70;;;16.90;;
18206;SDS011;9229;52.354;20.886;2023-11-19T07:07:26;40.03;;;16.38;;
18206;SDS011;9229;52.354;20.886;2023-11-19T07:12:28;50.88;;;18.73;;
18206;SDS011;9229;52.354;20.886;2023-11-19T07:17:32;35.92;;;15.30;;
18206;SDS011;9229;52.354;20.886;2023-11-19T07:22:35;36.53;;;18.40;;
18206;SDS011;9229;52.354;20.886;2023-11-19T07:27:38;45.03;;;19.77;;
18206;SDS011;9229;52.354;20.886;2023-11-19T07:32:42;29.17;;;13.85;;
18206;SDS011;9229;52.354;20.886;2023-11-19T07:37:44;26.42;;;14.68;;
18206;SDS011;9229;52.354;20.886;2023-11-19T07:42:47;27.17;;;14.07;;
18206;SDS011;9229;52.354;20.886;2023-11-19T07:47:51;41.17;;;17.90;;
18206;SDS011;9229;52.354;20.886;2023-11-19T07:52:53;28.05;;;12.90;;
18206;SDS011;9229;52.354;20.886;2023-11-19T07:57:54;27.48;;;14.20;;
18206;SDS011;9229;52.354;20.886;2023-11-19T08:02:58;24.33;;;12.18;;
18206;SDS011;9229;52.354;20.886;2023-11-19T08:08:00;24.58;;;12.18;;
18206;SDS011;9229;52.354;20.886;2023-11-19T08:13:04;25.05;;;13.52;;
18206;SDS011;9229;52.354;20.886;2023-11-19T08:18:09;20.73;;;10.60;;
18206;SDS011;9229;52.354;20.886;2023-11-19T08:23:12;18.42;;;10.75;;
18206;SDS011;9229;52.354;20.886;2023-11-19T08:28:14;22.33;;;11.00;;
18206;SDS011;9229;52.354;20.886;2023-11-19T08:33:18;23.00;;;12.18;;
18206;SDS011;9229;52.354;20.886;2023-11-19T08:38:22;23.83;;;11.45;;
18206;SDS011;9229;52.354;20.886;2023-11-19T08:43:28;22.83;;;11.43;;
18206;SDS011;9229;52.354;20.886;2023-11-19T08:48:39;21.83;;;11.35;;
18206;SDS011;9229;52.354;20.886;2023-11-19T08:53:43;21.58;;;11.85;;
18206;SDS011;9229;52.354;20.886;2023-11-19T08:58:45;26.20;;;12.82;;
18206;SDS011;9229;52.354;20.886;2023-11-19T09:03:52;34.83;;;14.38;;
18206;SDS011;9229;52.354;20.886;2023-11-19T09:08:54;25.33;;;11.38;;
18206;SDS011;9229;52.354;20.886;2023-11-19T09:14:00;20.63;;;11.93;;
18206;SDS011;9229;52.354;20.886;2023-11-19T09:19:04;17.52;;;9.70;;
18206;SDS011;9229;52.354;20.886;2023-11-19T09:24:06;24.05;;;11.90;;
18206;SDS011;9229;52.354;20.886;2023-11-19T09:29:08;24.05;;;10.82;;
18206;SDS011;9229;52.354;20.886;2023-11-19T09:34:11;22.70;;;11.02;;
18206;SDS011;9229;52.354;20.886;2023-11-19T09:44:29;24.73;;;10.77;;
18206;SDS011;9229;52.354;20.886;2023-11-19T09:49:32;27.80;;;12.23;;
18206;SDS011;9229;52.354;20.886;2023-11-19T09:54:36;25.67;;;13.38;;
18206;SDS011;9229;52.354;20.886;2023-11-19T09:59:38;34.67;;;14.20;;
18206;SDS011;9229;52.354;20.886;2023-11-19T10:04:42;29.75;;;13.75;;
18206;SDS011;9229;52.354;20.886;2023-11-19T10:09:48;24.60;;;11.77;;
18206;SDS011;9229;52.354;20.886;2023-11-19T10:14:50;25.60;;;12.82;;
18206;SDS011;9229;52.354;20.886;2023-11-19T10:19:54;25.38;;;11.63;;
18206;SDS011;9229;52.354;20.886;2023-11-19T10:24:56;24.80;;;11.45;;
18206;SDS011;9229;52.354;20.886;2023-11-19T10:29:59;26.08;;;12.93;;
18206;SDS011;9229;52.354;20.886;2023-11-19T10:35:05;30.45;;;13.15;;
18206;SDS011;9229;52.354;20.886;2023-11-19T10:40:09;24.17;;;12.27;;
18206;SDS011;9229;52.354;20.886;2023-11-19T10:45:21;40.63;;;15.80;;
18206;SDS011;9229;52.354;20.886;2023-11-19T10:50:25;29.23;;;13.40;;
18206;SDS011;9229;52.354;20.886;2023-11-19T10:55:28;24.27;;;13.15;;
18206;SDS011;9229;52.354;20.886;2023-11-19T11:00:33;28.98;;;13.55;;
18206;SDS011;9229;52.354;20.886;2023-11-19T11:05:41;23.92;;;11.50;;
18206;SDS011;9229;52.354;20.886;2023-11-19T11:10:59;26.08;;;12.32;;
18206;SDS011;9229;52.354;20.886;2023-11-19T11:16:02;29.33;;;12.43;;
18206;SDS011;9229;52.354;20.886;2023-11-19T11:21:09;24.35;;;13.35;;
18206;SDS011;9229;52.354;20.886;2023-11-19T11:31:50;31.45;;;14.40;;
18206;SDS011;9229;52.354;20.886;2023-11-19T11:37:06;31.95;;;14.98;;
18206;SDS011;9229;52.354;20.886;2023-11-19T11:42:33;36.15;;;13.77;;
18206;SDS011;9229;52.354;20.886;2023-11-19T11:53:23;31.92;;;13.15;;
18206;SDS011;9229;52.354;20.886;2023-11-19T11:58:26;31.27;;;14.38;;
18206;SDS011;9229;52.354;20.886;2023-11-19T12:03:33;26.27;;;12.85;;
18206;SDS011;9229;52.354;20.886;2023-11-19T12:08:36;32.97;;;14.10;;
18206;SDS011;9229;52.354;20.886;2023-11-19T12:13:47;25.42;;;13.70;;
18206;SDS011;9229;52.354;20.886;2023-11-19T12:18:55;28.40;;;14.38;;
18206;SDS011;9229;52.354;20.886;2023-11-19T12:23:59;37.40;;;18.42;;
18206;SDS011;9229;52.354;20.886;2023-11-19T12:29:07;30.75;;;15.80;;
18206;SDS011;9229;52.354;20.886;2023-11-19T12:34:09;28.50;;;15.32;;
18206;SDS011;9229;52.354;20.886;2023-11-19T12:39:16;27.75;;;12.85;;
18206;SDS011;9229;52.354;20.886;2023-11-19T12:44:20;26.80;;;13.38;;
18206;SDS011;9229;52.354;20.886;2023-11-19T12:49:22;28.92;;;14.52;;
18206;SDS011;9229;52.354;20.886;2023-11-19T12:54:35;27.70;;;13.75;;
18206;SDS011;9229;52.354;20.886;2023-11-19T12:59:38;30.40;;;14.95;;
18206;SDS011;9229;52.354;20.886;2023-11-19T13:04:41;27.45;;;14.07;;
18206;SDS011;9229;52.354;20.886;2023-11-19T13:09:46;36.95;;;16.52;;
18206;SDS011;9229;52.354;20.886;2023-11-19T13:14:48;37.10;;;16.95;;
18206;SDS011;9229;52.354;20.886;2023-11-19T13:19:50;30.05;;;13.55;;
18206;SDS011;9229;52.354;20.886;2023-11-19T13:24:53;29.75;;;13.88;;
18206;SDS011;9229;52.354;20.886;2023-11-19T13:29:57;29.85;;;14.40;;
18206;SDS011;9229;52.354;20.886;2023-11-19T13:34:59;34.83;;;15.63;;
18206;SDS011;9229;52.354;20.886;2023-11-19T13:40:06;37.38;;;16.33;;
18206;SDS011;9229;52.354;20.886;2023-11-19T13:45:10;39.03;;;17.63;;
18206;SDS011;9229;52.354;20.886;2023-11-19T13:50:13;30.25;;;15.00;;
18206;SDS011;9229;52.354;20.886;2023-11-19T13:55:18;31.42;;;13.77;;
18206;SDS011;9229;52.354;20.886;2023-11-19T14:00:20;29.48;;;14.30;;
18206;SDS011;9229;52.354;20.886;2023-11-19T14:05:24;26.50;;;12.77;;
18206;SDS011;9229;52.354;20.886;2023-11-19T14:10:28;33.78;;;14.13;;
18206;SDS011;9229;52.354;20.886;2023-11-19T14:15:30;33.10;;;15.40;;
18206;SDS011;9229;52.354;20.886;2023-11-19T14:20:32;34.17;;;15.77;;
18206;SDS011;9229;52.354;20.886;2023-11-19T14:25:35;33.03;;;14.32;;
18206;SDS011;9229;52.354;20.886;2023-11-19T14:30:37;35.65;;;16.40;;
18206;SDS011;9229;52.354;20.886;2023-11-19T14:35:41;37.67;;;17.48;;
18206;SDS011;9229;52.354;20.886;2023-11-19T14:40:45;39.40;;;17.85;;
18206;SDS011;9229;52.354;20.886;2023-11-19T14:45:48;48.28;;;17.30;;
18206;SDS011;9229;52.354;20.886;2023-11-19T14:50:50;36.33;;;16.42;;
18206;SDS011;9229;52.354;20.886;2023-11-19T14:55:53;38.40;;;16.83;;
18206;SDS011;9229;52.354;20.886;2023-11-19T15:00:55;46.15;;;18.65;;
18206;SDS011;9229;52.354;20.886;2023-11-19T15:05:57;42.63;;;17.23;;
18206;SDS011;9229;52.354;20.886;2023-11-19T15:11:01;36.40;;;17.30;;
18206;SDS011;9229;52.354;20.886;2023-11-19T15:16:06;38.30;;;16.30;;
18206;SDS011;9229;52.354;20.886;2023-11-19T15:21:10;48.42;;;18.25;;
18206;SDS011;9229;52.354;20.886;2023-11-19T15:26:14;38.83;;;16.90;;
18206;SDS011;9229;52.354;20.886;2023-11-19T15:31:16;47.08;;;19.67;;
18206;SDS011;9229;52.354;20.886;2023-11-19T15:36:21;50.40;;;21.08;;
18206;SDS011;9229;52.354;20.886;2023-11-19T15:41:24;44.40;;;18.80;;
18206;SDS011;9229;52.354;20.886;2023-11-19T15:46:27;50.38;;;19.45;;
18206;SDS011;9229;52.354;20.886;2023-11-19T15:51:30;43.60;;;17.85;;
18206;SDS011;9229;52.354;20.886;2023-11-19T15:56:34;34.17;;;17.95;;
18206;SDS011;9229;52.354;20.886;2023-11-19T16:01:36;61.83;;;25.88;;
18206;SDS011;9229;52.354;20.886;2023-11-19T16:06:37;46.58;;;20.15;;
18206;SDS011;9229;52.354;20.886;2023-11-19T16:11:41;60.95;;;24.58;;
18206;SDS011;9229;52.354;20.886;2023-11-19T16:16:44;46.78;;;19.77;;
18206;SDS011;9229;52.354;20.886;2023-11-19T16:21:46;41.45;;;18.88;;
18206;SDS011;9229;52.354;20.886;2023-11-19T16:26:49;42.53;;;18.58;;
18206;SDS011;9229;52.354;20.886;2023-11-19T16:31:51;46.80;;;21.20;;
18206;SDS011;9229;52.354;20.886;2023-11-19T16:36:53;46.70;;;18.10;;
18206;SDS011;9229;52.354;20.886;2023-11-19T16:41:56;44.75;;;19.02;;
18206;SDS011;9229;52.354;20.886;2023-11-19T16:46:58;43.65;;;18.50;;
18206;SDS011;9229;52.354;20.886;2023-11-19T16:52:00;46.08;;;19.42;;
18206;SDS011;9229;52.354;20.886;2023-11-19T16:57:05;47.90;;;18.25;;
18206;SDS011;9229;52.354;20.886;2023-11-19T17:02:07;49.58;;;18.58;;
18206;SDS011;9229;52.354;20.886;2023-11-19T17:07:12;41.00;;;19.45;;
18206;SDS011;9229;52.354;20.886;2023-11-19T17:12:15;41.05;;;17.67;;
18206;SDS011;9229;52.354;20.886;2023-11-19T17:17:17;41.35;;;17.70;;
18206;SDS011;9229;52.354;20.886;2023-11-19T17:22:19;38.80;;;16.17;;
18206;SDS011;9229;52.354;20.886;2023-11-19T17:27:24;35.22;;;16.35;;
18206;SDS011;9229;52.354;20.886;2023-11-19T17:32:28;43.13;;;18.40;;
18206;SDS011;9229;52.354;20.886;2023-11-19T17:37:32;35.40;;;16.33;;
18206;SDS011;9229;52.354;20.886;2023-11-19T17:42:36;35.05;;;16.73;;
18206;SDS011;9229;52.354;20.886;2023-11-19T17:47:40;35.53;;;17.45;;
18206;SDS011;9229;52.354;20.886;2023-11-19T17:52:43;36.58;;;15.52;;
18206;SDS011;9229;52.354;20.886;2023-11-19T17:57:47;33.45;;;15.98;;
18206;SDS011;9229;52.354;20.886;2023-11-19T18:02:51;35.72;;;15.85;;
18206;SDS011;9229;52.354;20.886;2023-11-19T18:07:52;41.03;;;17.33;;
18206;SDS011;9229;52.354;20.886;2023-11-19T18:12:57;35.78;;;17.15;;
18206;SDS011;9229;52.354;20.886;2023-11-19T18:18:03;34.95;;;16.33;;
18206;SDS011;9229;52.354;20.886;2023-11-19T18:23:05;36.75;;;15.75;;
18206;SDS011;9229;52.354;20.886;2023-11-19T18:28:10;32.15;;;14.25;;
18206;SDS011;9229;52.354;20.886;2023-11-19T18:33:12;33.70;;;16.33;;
18206;SDS011;9229;52.354;20.886;2023-11-19T18:38:14;33.00;;;16.58;;
18206;SDS011;9229;52.354;20.886;2023-11-19T18:43:17;35.03;;;15.70;;
18206;SDS011;9229;52.354;20.886;2023-11-19T18:48:19;33.28;;;15.73;;
18206;SDS011;9229;52.354;20.886;2023-11-19T18:53:24;32.42;;;14.25;;
18206;SDS011;9229;52.354;20.886;2023-11-19T18:58:27;29.63;;;14.75;;
18206;SDS011;9229;52.354;20.886;2023-11-19T19:03:29;27.95;;;15.73;;
18206;SDS011;9229;52.354;20.886;2023-11-19T19:08:45;37.08;;;14.02;;
18206;SDS011;9229;52.354;20.886;2023-11-19T19:13:51;28.80;;;14.55;;
18206;SDS011;9229;52.354;20.886;2023-11-19T19:18:55;29.25;;;14.75;;
18206;SDS011;9229;52.354;20.886;2023-11-19T19:23:59;25.98;;;13.82;;
18206;SDS011;9229;52.354;20.886;2023-11-19T19:29:05;26.85;;;13.00;;
18206;SDS011;9229;52.354;20.886;2023-11-19T19:34:10;26.75;;;14.32;;
18206;SDS011;9229;52.354;20.886;2023-11-19T19:39:29;34.75;;;15.38;;
18206;SDS011;9229;52.354;20.886;2023-11-19T19:44:36;32.20;;;14.32;;
18206;SDS011;9229;52.354;20.886;2023-11-19T19:49:38;29.20;;;15.32;;
18206;SDS011;9229;52.354;20.886;2023-11-19T19:54:45;29.63;;;14.55;;
18206;SDS011;9229;52.354;20.886;2023-11-19T19:59:48;26.27;;;13.50;;
18206;SDS011;9229;52.354;20.886;2023-11-19T20:04:52;26.17;;;12.95;;
18206;SDS011;9229;52.354;20.886;2023-11-19T20:10:01;29.63;;;15.05;;
18206;SDS011;9229;52.354;20.886;2023-11-19T20:20:56;29.50;;;14.23;;
18206;SDS011;9229;52.354;20.886;2023-11-19T20:26:03;29.33;;;14.05;;
18206;SDS011;9229;52.354;20.886;2023-11-19T20:31:12;25.45;;;14.32;;
18206;SDS011;9229;52.354;20.886;2023-11-19T20:36:17;31.85;;;15.40;;
18206;SDS011;9229;52.354;20.886;2023-11-19T20:41:32;26.50;;;13.88;;
18206;SDS011;9229;52.354;20.886;2023-11-19T20:46:41;33.78;;;14.32;;
18206;SDS011;9229;52.354;20.886;2023-11-19T20:51:43;28.20;;;13.18;;
18206;SDS011;9229;52.354;20.886;2023-11-19T20:56:45;27.52;;;13.13;;
18206;SDS011;9229;52.354;20.886;2023-11-19T21:01:49;27.27;;;13.73;;
18206;SDS011;9229;52.354;20.886;2023-11-19T21:06:51;30.60;;;13.73;;
18206;SDS011;9229;52.354;20.886;2023-11-19T21:11:53;26.63;;;12.95;;
18206;SDS011;9229;52.354;20.886;2023-11-19T21:16:58;22.83;;;12.32;;
18206;SDS011;9229;52.354;20.886;2023-11-19T21:22:01;32.80;;;12.80;;
18206;SDS011;9229;52.354;20.886;2023-11-19T21:27:04;24.27;;;13.13;;
18206;SDS011;9229;52.354;20.886;2023-11-19T21:32:09;21.35;;;11.90;;
18206;SDS011;9229;52.354;20.886;2023-11-19T21:37:11;27.92;;;13.18;;
18206;SDS011;9229;52.354;20.886;2023-11-19T21:42:13;29.05;;;13.93;;
18206;SDS011;9229;52.354;20.886;2023-11-19T21:47:17;21.13;;;12.32;;
18206;SDS011;9229;52.354;20.886;2023-11-19T21:52:19;21.48;;;11.32;;
18206;SDS011;9229;52.354;20.886;2023-11-19T21:57:21;19.63;;;11.38;;
18206;SDS011;9229;52.354;20.886;2023-11-19T22:02:24;21.27;;;11.90;;
18206;SDS011;9229;52.354;20.886;2023-11-19T22:07:29;26.38;;;12.57;;
18206;SDS011;9229;52.354;20.886;2023-11-19T22:12:32;23.30;;;12.57;;
18206;SDS011;9229;52.354;20.886;2023-11-19T22:17:37;21.85;;;11.18;;
18206;SDS011;9229;52.354;20.886;2023-11-19T22:22:39;20.98;;;11.27;;
18206;SDS011;9229;52.354;20.886;2023-11-19T22:27:43;22.02;;;11.90;;
18206;SDS011;9229;52.354;20.886;2023-11-19T22:32:47;20.20;;;10.80;;
18206;SDS011;9229;52.354;20.886;2023-11-19T22:37:49;27.63;;;11.18;;
18206;SDS011;9229;52.354;20.886;2023-11-19T22:42:51;19.02;;;9.95;;
18206;SDS011;9229;52.354;20.886;2023-11-19T22:47:55;18.58;;;10.48;;
18206;SDS011;9229;52.354;20.886;2023-11-19T22:52:57;19.40;;;10.57;;
18206;SDS011;9229;52.354;20.886;2023-11-19T22:58:08;17.73;;;11.23;;
18206;SDS011;9229;52.354;20.886;2023-11-19T23:03:12;19.67;;;10.23;;
18206;SDS011;9229;52.354;20.886;2023-11-19T23:08:14;22.80;;;10.38;;
18206;SDS011;9229;52.354;20.886;2023-11-19T23:13:17;21.40;;;11.35;;
18206;SDS011;9229;52.354;20.886;2023-11-19T23:18:20;22.60;;;11.75;;
18206;SDS011;9229;52.354;20.886;2023-11-19T23:23:23;17.48;;;10.10;;
18206;SDS011;9229;52.354;20.886;2023-11-19T23:28:25;23.85;;;11.27;;
18206;SDS011;9229;52.354;20.886;2023-11-19T23:33:30;22.98;;;13.15;;
18206;SDS011;9229;52.354;20.886;2023-11-19T23:38:32;20.00;;;11.13;;
18206;SDS011;9229;52.354;20.886;2023-11-19T23:43:34;19.20;;;10.95;;
18206;SDS011;9229;52.354;20.886;2023-11-19T23:48:37;23.73;;;11.60;;
18206;SDS011;9229;52.354;20.886;2023-11-19T23:53:39;16.60;;;10.57;;
18206;SDS011;9229;52.354;20.886;2023-11-19T23:58:41;17.45;;;9.68;;
